Time,TemperatureF,DewpointF,PressureIn,WindDirection,WindDirectionDegrees,WindSpeedMPH,WindSpeedGustMPH,Humidity,HourlyPrecipIn,Conditions,Clouds,dailyrainin,SoftwareType,DateUTC
2013-07-03 00:12:00,71.0,70.0,30.18,SSW,197,0.0,1.0,96,0.00,,,0.00,weatherlink.com 1.10,2013-07-03 04:12:00,
2013-07-03 00:27:00,70.7,70.0,30.18,SSW,193,0.0,1.0,96,0.00,,,0.00,weatherlink.com 1.10,2013-07-03 04:27:00,
2013-07-03 00:41:00,70.7,70.0,30.18,WNW,286,0.0,1.0,96,0.00,,,0.00,weatherlink.com 1.10,2013-07-03 04:41:00,
2013-07-03 00:57:00,70.7,70.0,30.18,SW,232,0.0,2.0,97,0.00,,,0.00,weatherlink.com 1.10,2013-07-03 04:57:00,
2013-07-03 01:12:00,70.7,70.0,30.18,West,266,1.0,3.0,97,0.00,,,0.00,weatherlink.com 1.10,2013-07-03 05:12:00,
2013-07-03 01:27:00,70.5,69.0,30.18,WSW,253,0.0,2.0,96,0.00,,,0.00,weatherlink.com 1.10,2013-07-03 05:27:00,
2013-07-03 01:57:00,70.5,69.0,30.18,SW,236,0.0,3.0,96,0.00,,,0.00,weatherlink.com 1.10,2013-07-03 05:57:00,
2013-07-03 02:12:00,70.4,69.0,30.19,SSE,153,1.0,3.0,96,0.00,,,0.00,weatherlink.com 1.10,2013-07-03 06:12:00,
2013-07-03 02:27:00,70.2,69.0,30.19,West,266,0.0,5.0,96,0.00,,,0.00,weatherlink.com 1.10,2013-07-03 06:27:00,
2013-07-03 02:42:00,70.0,69.0,30.18,SSE,159,0.0,3.0,96,0.00,,,0.00,weatherlink.com 1.10,2013-07-03 06:42:00,
2013-07-03 03:12:00,69.8,69.0,30.18,WNW,285,1.0,2.0,96,0.00,,,0.00,weatherlink.com 1.10,2013-07-03 07:12:00,
2013-07-03 03:27:00,69.7,69.0,30.19,SW,235,0.0,2.0,96,0.00,,,0.00,weatherlink.com 1.10,2013-07-03 07:27:00,
2013-07-03 03:42:00,69.7,69.0,30.19,West,264,0.0,2.0,97,0.00,,,0.00,weatherlink.com 1.10,2013-07-03 07:42:00,
2013-07-03 03:57:00,69.8,69.0,30.19,WSW,246,0.0,1.0,97,0.00,,,0.00,weatherlink.com 1.10,2013-07-03 07:57:00,
2013-07-03 04:12:00,69.6,69.0,30.19,SW,230,0.0,2.0,97,0.00,,,0.00,weatherlink.com 1.10,2013-07-03 08:12:00,
2013-07-03 04:57:00,69.3,69.0,30.20,WSW,245,0.0,2.0,97,0.00,,,0.00,weatherlink.com 1.10,2013-07-03 08:57:00,
2013-07-03 05:42:00,69.0,68.0,30.21,SW,228,0.0,2.0,97,0.00,,,0.00,weatherlink.com 1.10,2013-07-03 09:42:00,
2013-07-03 05:57:00,69.4,69.0,30.21,West,264,0.0,1.0,97,0.00,,,0.00,weatherlink.com 1.10,2013-07-03 09:57:00,
2013-07-03 06:12:00,69.7,69.0,30.21,West,272,1.0,2.0,97,0.00,,,0.00,weatherlink.com 1.10,2013-07-03 10:12:00,
2013-07-03 06:28:00,70.0,69.0,30.22,SW,219,0.0,1.0,97,0.00,,,0.00,weatherlink.com 1.10,2013-07-03 10:28:00,
2013-07-03 06:43:00,70.3,69.0,30.22,WSW,243,0.0,2.0,97,0.01,,,0.01,weatherlink.com 1.10,2013-07-03 10:43:00,
2013-07-03 06:58:00,70.7,70.0,30.22,WSW,249,0.0,2.0,97,0.01,,,0.01,weatherlink.com 1.10,2013-07-03 10:58:00,
2013-07-03 07:13:00,71.1,70.0,30.23,WSW,245,0.0,1.0,97,0.01,,,0.01,weatherlink.com 1.10,2013-07-03 11:13:00,
2013-07-03 07:43:00,71.9,71.0,30.23,WSW,255,0.0,2.0,97,0.00,,,0.01,weatherlink.com 1.10,2013-07-03 11:43:00,
2013-07-03 08:14:00,75.4,74.0,30.24,SSW,204,0.0,2.0,94,0.00,,,0.01,weatherlink.com 1.10,2013-07-03 12:14:00,
2013-07-03 08:28:00,75.8,73.0,30.24,ENE,75,0.0,4.0,90,0.00,,,0.01,weatherlink.com 1.10,2013-07-03 12:28:00,
2013-07-03 08:43:00,75.8,72.0,30.24,WSW,256,0.0,2.0,89,0.00,,,0.01,weatherlink.com 1.10,2013-07-03 12:43:00,
2013-07-03 08:58:00,76.0,72.0,30.24,SSW,200,1.0,3.0,87,0.00,,,0.01,weatherlink.com 1.10,2013-07-03 12:58:00,
2013-07-03 09:13:00,76.2,72.0,30.24,WSW,242,0.0,5.0,87,0.00,,,0.01,weatherlink.com 1.10,2013-07-03 13:13:00,
2013-07-03 09:28:00,76.9,72.0,30.24,West,263,1.0,4.0,85,0.00,,,0.01,weatherlink.com 1.10,2013-07-03 13:28:00,
2013-07-03 09:43:00,77.7,73.0,30.24,WSW,240,1.0,3.0,84,0.00,,,0.01,weatherlink.com 1.10,2013-07-03 13:43:00,
2013-07-03 09:58:00,78.3,73.0,30.25,WSW,243,1.0,2.0,84,0.00,,,0.01,weatherlink.com 1.10,2013-07-03 13:58:00,
2013-07-03 10:13:00,79.3,74.0,30.25,ESE,112,0.0,2.0,83,0.00,,,0.01,weatherlink.com 1.10,2013-07-03 14:13:00,
2013-07-03 10:43:00,79.5,73.0,30.25,SSE,147,0.0,3.0,81,0.00,,,0.01,weatherlink.com 1.10,2013-07-03 14:43:00,
2013-07-03 10:58:00,80.9,74.0,30.25,South,176,1.0,5.0,79,0.00,,,0.01,weatherlink.com 1.10,2013-07-03 14:58:00,
2013-07-03 11:13:00,82.1,74.0,30.24,West,259,0.0,6.0,77,0.00,,,0.01,weatherlink.com 1.10,2013-07-03 15:13:00,
2013-07-03 11:28:00,83.0,74.0,30.24,ESE,122,1.0,3.0,75,0.00,,,0.01,weatherlink.com 1.10,2013-07-03 15:28:00,
2013-07-03 11:43:00,83.0,74.0,30.23,SE,133,0.0,5.0,75,0.00,,,0.01,weatherlink.com 1.10,2013-07-03 15:43:00,
2013-07-03 12:13:00,84.6,74.0,30.24,South,186,2.0,6.0,70,0.00,,,0.01,weatherlink.com 1.10,2013-07-03 16:13:00,
2013-07-03 12:28:00,85.4,74.0,30.23,SW,229,5.0,7.0,69,0.00,,,0.01,weatherlink.com 1.10,2013-07-03 16:28:00,
2013-07-03 12:43:00,85.7,74.0,30.23,SSW,201,3.0,8.0,68,0.00,,,0.01,weatherlink.com 1.10,2013-07-03 16:43:00,
2013-07-03 12:58:00,85.4,75.0,30.23,SSE,159,1.0,9.0,71,0.00,,,0.01,weatherlink.com 1.10,2013-07-03 16:58:00,
2013-07-03 13:13:00,86.9,75.0,30.23,WSW,257,1.0,10.0,67,0.00,,,0.01,weatherlink.com 1.10,2013-07-03 17:13:00,
2013-07-03 13:28:00,85.8,75.0,30.24,ESE,114,1.0,8.0,69,0.00,,,0.01,weatherlink.com 1.10,2013-07-03 17:28:00,
2013-07-03 13:44:00,85.2,74.0,30.23,WSW,252,1.0,5.0,70,0.00,,,0.01,weatherlink.com 1.10,2013-07-03 17:44:00,
2013-07-03 13:59:00,81.2,74.0,30.23,SW,233,1.0,11.0,78,0.00,,,0.01,weatherlink.com 1.10,2013-07-03 17:59:00,
2013-07-03 14:14:00,79.7,74.0,30.22,SW,218,2.0,7.0,82,0.00,,,0.01,weatherlink.com 1.10,2013-07-03 18:14:00,
2013-07-03 14:29:00,80.4,75.0,30.22,SE,132,0.0,5.0,84,0.00,,,0.01,weatherlink.com 1.10,2013-07-03 18:29:00,
2013-07-03 14:44:00,82.8,75.0,30.21,WSW,252,1.0,7.0,77,0.00,,,0.01,weatherlink.com 1.10,2013-07-03 18:44:00,
2013-07-03 14:59:00,84.5,74.0,30.20,ESE,122,1.0,7.0,71,0.00,,,0.01,weatherlink.com 1.10,2013-07-03 18:59:00,
2013-07-03 15:14:00,85.0,75.0,30.20,WSW,255,5.0,5.0,72,0.00,,,0.01,weatherlink.com 1.10,2013-07-03 19:14:00,
2013-07-03 15:29:00,85.4,75.0,30.20,WSW,242,4.0,6.0,72,0.00,,,0.01,weatherlink.com 1.10,2013-07-03 19:29:00,
2013-07-03 15:44:00,85.3,75.0,30.19,WNW,288,4.0,7.0,71,0.00,,,0.01,weatherlink.com 1.10,2013-07-03 19:44:00,
2013-07-03 16:14:00,84.2,74.0,30.18,WSW,255,2.0,8.0,72,0.00,,,0.01,weatherlink.com 1.10,2013-07-03 20:14:00,
2013-07-03 16:29:00,84.4,75.0,30.18,SW,224,1.0,7.0,73,0.00,,,0.01,weatherlink.com 1.10,2013-07-03 20:29:00,
2013-07-03 16:44:00,83.9,74.0,30.18,South,179,1.0,9.0,73,0.00,,,0.01,weatherlink.com 1.10,2013-07-03 20:44:00,
2013-07-03 16:59:00,82.4,74.0,30.18,WNW,295,3.0,9.0,76,0.00,,,0.01,weatherlink.com 1.10,2013-07-03 20:59:00,
2013-07-03 17:14:00,82.7,74.0,30.18,SE,132,1.0,8.0,76,0.00,,,0.01,weatherlink.com 1.10,2013-07-03 21:14:00,
2013-07-03 17:44:00,81.5,73.0,30.18,SW,235,7.0,9.0,76,0.00,,,0.01,weatherlink.com 1.10,2013-07-03 21:44:00,
2013-07-03 17:59:00,81.0,73.0,30.18,West,274,1.0,9.0,77,0.00,,,0.01,weatherlink.com 1.10,2013-07-03 21:59:00,
2013-07-03 18:44:00,79.3,73.0,30.18,West,270,4.0,8.0,80,0.00,,,0.01,weatherlink.com 1.10,2013-07-03 22:44:00,
2013-07-03 19:14:00,77.8,72.0,30.18,WNW,294,4.0,8.0,82,0.00,,,0.01,weatherlink.com 1.10,2013-07-03 23:14:00,
2013-07-03 20:14:00,75.8,72.0,30.20,SW,220,2.0,3.0,87,0.00,,,0.01,weatherlink.com 1.10,2013-07-04 00:14:00,
2013-07-03 20:29:00,76.1,72.0,30.20,WSW,239,0.0,4.0,87,0.00,,,0.01,weatherlink.com 1.10,2013-07-04 00:29:00,
2013-07-03 20:44:00,75.6,72.0,30.20,WSW,245,0.0,4.0,89,0.00,,,0.01,weatherlink.com 1.10,2013-07-04 00:44:00,
2013-07-03 20:59:00,75.0,72.0,30.20,SSW,204,2.0,4.0,90,0.00,,,0.01,weatherlink.com 1.10,2013-07-04 00:59:00,
2013-07-03 21:29:00,74.0,72.0,30.21,WSW,256,0.0,2.0,92,0.00,,,0.01,weatherlink.com 1.10,2013-07-04 01:29:00,
2013-07-03 22:14:00,73.4,71.0,30.21,East,98,0.0,1.0,93,0.00,,,0.01,weatherlink.com 1.10,2013-07-04 02:14:00,
2013-07-03 22:44:00,72.7,71.0,30.21,WSW,257,1.0,2.0,93,0.00,,,0.01,weatherlink.com 1.10,2013-07-04 02:44:00,
2013-07-03 22:59:00,72.6,71.0,30.21,WSW,249,1.0,1.0,94,0.00,,,0.01,weatherlink.com 1.10,2013-07-04 02:59:00,
2013-07-03 23:44:00,72.5,71.0,30.23,SSW,206,0.0,3.0,94,0.00,,,0.01,weatherlink.com 1.10,2013-07-04 03:44:00,
2013-07-03 23:59:00,72.6,71.0,30.22,WSW,245,0.0,1.0,94,0.00,,,0.01,weatherlink.com 1.10,2013-07-04 03:59:00,